Time;durP1;ratioP1;P1;durP2;ratioP2;P2;SDS_P1;SDS_P2;PMS_P1;PMS_P2;Temp;Humidity;BMP_temperature;BMP_pressure;BME280_temperature;BME280_humidity;BME280_pressure;Samples;Min_cycle;Max_cycle;Signal;HPM_P1;HPM_P2
2022/05/15 00:00:37;;;;;;;8.43;4.42;;;;;;;14.76;69.43;99274.73;1760247;81;20985;-78
2022/05/15 00:03:08;;;;;;;7.22;4.35;;;;;;;14.70;70.48;99270.63;1747218;81;21065;-78
2022/05/15 00:05:35;;;;;;;6.70;4.35;;;;;;;14.64;71.43;99266.06;1754479;81;21530;-78
2022/05/15 00:08:02;;;;;;;10.63;5.08;;;;;;;14.62;70.94;99270.51;1745551;82;20993;-79
2022/05/15 00:10:30;;;;;;;14.58;5.28;;;;;;;14.64;71.84;99272.17;1726450;82;20998;-78
2022/05/15 00:12:57;;;;;;;11.43;4.65;;;;;;;14.66;72.02;99266.86;1746207;82;21530;-78
2022/05/15 00:15:24;;;;;;;10.58;4.90;;;;;;;14.68;72.29;99275.50;1731463;82;21050;-78
2022/05/15 00:17:51;;;;;;;7.22;5.20;;;;;;;14.70;73.88;99265.83;1743426;82;21122;-78
2022/05/15 00:20:17;;;;;;;7.75;4.87;;;;;;;14.72;73.07;99267.92;1747975;82;21030;-78
2022/05/15 00:22:44;;;;;;;11.30;5.08;;;;;;;14.71;74.40;99263.16;1745792;82;21041;-78
2022/05/15 00:25:11;;;;;;;10.98;5.03;;;;;;;14.71;74.61;99263.62;1729533;82;20976;-78
2022/05/15 00:27:38;;;;;;;9.00;4.35;;;;;;;14.73;73.70;99267.49;1728712;82;21051;-77
2022/05/15 00:30:05;;;;;;;11.48;4.83;;;;;;;14.71;74.04;99262.31;1742677;82;21054;-77
2022/05/15 00:32:32;;;;;;;11.12;4.87;;;;;;;14.70;74.36;99266.70;1739713;82;21024;-77
2022/05/15 00:34:59;;;;;;;9.78;5.05;;;;;;;14.67;73.43;99268.11;1742089;82;21018;-77
2022/05/15 00:37:28;;;;;;;8.95;4.87;;;;;;;14.61;73.93;99272.28;1733845;82;21034;-78
2022/05/15 00:39:55;;;;;;;9.20;5.00;;;;;;;14.56;74.62;99268.10;1727058;82;21596;-77
2022/05/15 00:42:21;;;;;;;6.40;4.62;;;;;;;14.52;75.09;99272.16;1735136;82;21042;-77
2022/05/15 00:44:48;;;;;;;9.10;4.62;;;;;;;14.47;74.91;99272.78;1715497;82;21027;-78
2022/05/15 00:47:15;;;;;;;8.68;4.75;;;;;;;14.41;75.40;99269.09;1721342;82;21565;-78
2022/05/15 00:49:43;;;;;;;8.40;4.67;;;;;;;14.39;75.46;99273.99;1734100;82;21548;-78
2022/05/15 00:52:14;;;;;;;10.13;5.15;;;;;;;14.33;74.76;99268.07;1719152;82;21029;-77
2022/05/15 00:54:55;;;;;;;9.63;5.62;;;;;;;14.28;74.33;99267.41;1739846;82;21070;-76
2022/05/15 00:57:29;;;;;;;8.83;5.55;;;;;;;14.23;75.43;99264.56;1740021;82;21010;-78
2022/05/15 01:00:14;;;;;;;8.18;5.20;;;;;;;14.16;74.15;99266.99;1725204;82;21030;-78
2022/05/15 01:02:46;;;;;;;10.10;5.33;;;;;;;14.09;74.25;99270.30;1731670;82;21035;-78
2022/05/15 01:05:15;;;;;;;9.98;5.28;;;;;;;14.05;75.18;99268.25;1718440;83;21078;-78
2022/05/15 01:07:42;;;;;;;14.47;5.33;;;;;;;14.03;75.34;99268.76;1746094;82;20999;-78
2022/05/15 01:10:10;;;;;;;7.62;4.97;;;;;;;13.98;75.11;99274.59;1725174;83;20995;-78
2022/05/15 01:12:41;;;;;;;9.45;4.95;;;;;;;13.93;76.25;99269.54;1727651;83;21093;-77
2022/05/15 01:15:14;;;;;;;12.45;5.28;;;;;;;13.92;73.72;99269.59;1717044;83;20993;-80
2022/05/15 01:17:42;;;;;;;10.32;5.40;;;;;;;13.89;75.93;99264.03;1718923;82;21133;-77
2022/05/15 01:20:14;;;;;;;9.73;5.28;;;;;;;13.89;76.22;99261.41;1735160;83;21473;-79
2022/05/15 01:22:41;;;;;;;10.05;5.95;;;;;;;13.89;76.24;99255.34;1730902;83;21100;-77
2022/05/15 01:25:25;;;;;;;9.43;5.35;;;;;;;13.92;75.73;99257.83;1757624;82;21479;-77
2022/05/15 01:28:07;;;;;;;11.30;4.58;;;;;;;13.94;75.27;99258.62;1757268;81;21007;-77
2022/05/15 01:30:38;;;;;;;9.23;4.70;;;;;;;13.95;75.70;99259.47;1752935;82;20972;-78
2022/05/15 01:33:07;;;;;;;9.65;4.20;;;;;;;13.99;75.45;99263.24;1757487;82;21013;-78
2022/05/15 01:35:34;;;;;;;8.30;4.40;;;;;;;14.02;75.81;99263.58;1733665;81;21007;-78
2022/05/15 01:38:03;;;;;;;10.20;4.12;;;;;;;14.03;75.93;99267.45;1737858;82;21042;-78
2022/05/15 01:40:29;;;;;;;10.88;4.83;;;;;;;14.06;75.39;99262.55;1738922;82;21016;-78
2022/05/15 01:42:56;;;;;;;9.48;4.83;;;;;;;14.08;75.60;99258.97;1757446;82;21716;-79
2022/05/15 01:45:23;;;;;;;12.03;4.80;;;;;;;14.10;75.53;99258.45;1757712;82;20960;-79
2022/05/15 01:47:50;;;;;;;12.25;5.00;;;;;;;14.12;75.34;99257.97;1757683;82;21035;-78
2022/05/15 01:50:18;;;;;;;8.55;4.50;;;;;;;14.13;75.13;99260.97;1736183;82;21052;-79
2022/05/15 01:52:46;;;;;;;9.78;4.33;;;;;;;14.14;75.24;99253.97;1757512;82;21054;-78
2022/05/15 01:55:13;;;;;;;11.85;5.00;;;;;;;14.08;74.51;99247.66;1737269;82;21011;-78
2022/05/15 01:57:41;;;;;;;11.18;5.30;;;;;;;14.11;75.41;99256.72;1718113;82;21523;-79
2022/05/15 02:00:13;;;;;;;11.38;4.95;;;;;;;14.07;74.77;99257.28;1713775;83;20966;-78
2022/05/15 02:02:41;;;;;;;6.65;4.75;;;;;;;14.04;75.36;99261.30;1732126;82;21067;-77
2022/05/15 02:05:09;;;;;;;9.48;5.03;;;;;;;13.99;75.70;99258.02;1742909;82;21006;-79
2022/05/15 02:07:37;;;;;;;9.50;5.03;;;;;;;13.97;74.92;99256.38;1743003;82;21032;-78
2022/05/15 02:10:06;;;;;;;9.30;5.30;;;;;;;13.93;75.70;99257.78;1717821;82;21052;-79
2022/05/15 02:12:33;;;;;;;11.65;5.35;;;;;;;13.87;74.27;99260.62;1742948;82;21510;-78
2022/05/15 02:15:01;;;;;;;11.90;5.03;;;;;;;13.84;76.01;99253.33;1742906;82;20963;-78
2022/05/15 02:17:29;;;;;;;10.40;5.05;;;;;;;13.79;75.43;99256.13;1743039;81;21057;-78
2022/05/15 02:19:57;;;;;;;13.78;5.62;;;;;;;13.74;74.57;99255.42;1742879;82;21334;-78
2022/05/15 02:22:24;;;;;;;11.60;5.33;;;;;;;13.68;74.99;99253.03;1743013;82;21021;-78
2022/05/15 02:24:51;;;;;;;8.35;5.12;;;;;;;13.61;74.16;99260.67;1742790;82;20998;-79
2022/05/15 02:27:18;;;;;;;11.33;5.20;;;;;;;13.53;74.77;99263.58;1742973;82;20970;-78
2022/05/15 02:29:45;;;;;;;8.85;5.40;;;;;;;13.50;74.01;99266.27;1733830;82;21520;-79
2022/05/15 02:32:11;;;;;;;12.50;5.47;;;;;;;13.43;74.17;99268.68;1742885;82;20953;-78
2022/05/15 02:34:38;;;;;;;11.30;5.60;;;;;;;13.39;75.96;99272.30;1742989;82;21153;-78
2022/05/15 02:37:06;;;;;;;7.80;5.10;;;;;;;13.38;76.00;99271.46;1717707;82;20986;-78
2022/05/15 02:39:32;;;;;;;15.08;5.47;;;;;;;13.38;76.42;99263.63;1742982;82;21062;-78
2022/05/15 02:42:01;;;;;;;9.48;4.92;;;;;;;13.40;75.60;99266.20;1742797;82;21065;-78
2022/05/15 02:44:31;;;;;;;7.35;4.40;;;;;;;13.38;76.31;99266.70;1717623;82;21573;-78
2022/05/15 02:46:58;;;;;;;7.83;4.40;;;;;;;13.33;77.05;99267.70;1742841;82;21002;-78
2022/05/15 02:52:10;;;;;;;7.35;4.10;;;;;;;13.24;76.90;99277.11;1742196;82;20955;-78
2022/05/15 02:54:37;;;;;;;9.85;4.45;;;;;;;13.22;77.59;99271.09;1705763;83;21010;-78
2022/05/15 02:57:07;;;;;;;8.88;4.87;;;;;;;13.26;77.46;99275.30;1699763;83;21063;-78
2022/05/15 02:59:35;;;;;;;8.48;4.85;;;;;;;13.30;78.67;99278.70;1740216;81;21006;-77
2022/05/15 03:02:01;;;;;;;8.63;5.03;;;;;;;13.32;77.77;99271.67;1760181;81;21073;-79
2022/05/15 03:04:29;;;;;;;8.05;4.58;;;;;;;13.37;77.53;99281.52;1759568;81;21045;-79
2022/05/15 03:06:56;;;;;;;12.93;5.65;;;;;;;13.40;77.08;99286.63;1754897;81;21027;-78
2022/05/15 03:09:23;;;;;;;11.20;5.67;;;;;;;13.44;77.12;99287.38;1758844;81;20998;-79
2022/05/15 03:11:50;;;;;;;12.20;5.58;;;;;;;13.48;77.41;99286.37;1751689;81;20995;-79
2022/05/15 03:14:17;;;;;;;11.33;5.80;;;;;;;13.52;77.87;99288.81;1761076;81;20980;-79
2022/05/15 03:16:44;;;;;;;18.67;5.78;;;;;;;13.53;77.38;99288.39;1739674;82;21026;-79
2022/05/15 03:19:11;;;;;;;13.40;5.80;;;;;;;13.52;77.69;99289.27;1718628;82;21023;-79
2022/05/15 03:21:37;;;;;;;11.65;5.28;;;;;;;13.53;76.10;99287.92;1689869;84;20999;-78
2022/05/15 03:24:08;;;;;;;10.82;5.87;;;;;;;13.46;75.70;99293.41;1759056;80;21055;-79
2022/05/15 03:26:41;;;;;;;12.45;5.83;;;;;;;13.43;77.10;99296.98;1785767;80;21534;-79
2022/05/15 03:29:10;;;;;;;10.75;5.87;;;;;;;13.42;77.30;99299.17;1770277;80;20995;-79
2022/05/15 03:31:39;;;;;;;11.18;5.92;;;;;;;13.38;75.39;99298.88;1786140;80;21462;-79
2022/05/15 03:34:09;;;;;;;12.98;6.22;;;;;;;13.30;76.21;99300.44;1782809;80;21030;-78
2022/05/15 03:36:39;;;;;;;11.48;6.17;;;;;;;13.22;76.56;99298.50;1793115;80;20978;-79
2022/05/15 03:39:08;;;;;;;9.83;5.92;;;;;;;13.17;76.35;99300.42;1793142;80;20994;-79
2022/05/15 03:41:37;;;;;;;9.83;6.28;;;;;;;13.14;75.17;99306.58;1789909;80;21035;-79
2022/05/15 03:44:05;;;;;;;10.85;5.80;;;;;;;13.10;75.46;99302.36;1780409;80;21546;-79
2022/05/15 03:46:33;;;;;;;16.95;6.53;;;;;;;13.09;75.09;99306.31;1762995;80;20984;-78
2022/05/15 03:48:59;;;;;;;10.78;5.90;;;;;;;13.07;74.86;99311.61;1757678;80;21050;-78
2022/05/15 03:51:27;;;;;;;11.40;6.33;;;;;;;13.06;75.45;99309.04;1793071;80;21019;-79
2022/05/15 03:53:54;;;;;;;11.28;6.15;;;;;;;13.08;77.26;99307.23;1792969;80;21563;-79
2022/05/15 03:56:49;;;;;;;11.68;6.60;;;;;;;13.10;77.01;99313.26;1783435;80;21102;-77
2022/05/15 03:58:50;;;;;;;10.18;5.70;;;;;;;13.12;75.81;99313.60;1768963;80;21527;-79
2022/05/15 04:01:17;;;;;;;8.68;5.90;;;;;;;13.14;76.47;99316.17;1793164;80;20990;-78
2022/05/15 04:03:43;;;;;;;12.82;5.75;;;;;;;13.14;76.65;99326.16;1793295;80;21042;-79
2022/05/15 04:06:10;;;;;;;9.10;4.92;;;;;;;13.16;75.83;99324.80;1790749;80;21550;-79
2022/05/15 04:08:37;;;;;;;10.82;5.87;;;;;;;13.15;77.41;99329.64;1787166;80;21633;-78
2022/05/15 04:11:03;;;;;;;10.90;6.15;;;;;;;13.16;76.71;99325.27;1795088;80;21053;-79
2022/05/15 04:13:30;;;;;;;12.53;6.28;;;;;;;13.26;76.95;99334.05;1795265;80;21043;-79
2022/05/15 04:15:57;;;;;;;10.03;5.97;;;;;;;13.32;76.93;99335.19;1795100;80;20991;-79
2022/05/15 04:18:24;;;;;;;11.20;5.90;;;;;;;13.38;76.97;99335.44;1795237;80;21042;-79
2022/05/15 04:20:51;;;;;;;13.20;5.90;;;;;;;13.44;76.81;99340.45;1795094;80;21031;-78
2022/05/15 04:23:18;;;;;;;8.83;5.25;;;;;;;13.51;76.15;99341.12;1776929;80;20975;-79
2022/05/15 04:25:45;;;;;;;9.80;6.00;;;;;;;13.56;75.41;99333.13;1788078;80;21010;-79
2022/05/15 04:28:12;;;;;;;10.80;5.50;;;;;;;13.60;75.40;99340.80;1782417;80;21467;-78
2022/05/15 04:30:39;;;;;;;14.03;5.53;;;;;;;13.64;74.77;99338.48;1785380;80;20994;-79
2022/05/15 04:33:06;;;;;;;14.63;5.58;;;;;;;13.68;74.81;99346.63;1779435;80;21089;-80
2022/05/15 04:35:33;;;;;;;10.10;5.12;;;;;;;13.71;74.37;99345.69;1787074;79;20992;-79
2022/05/15 04:38:00;;;;;;;8.70;5.75;;;;;;;13.76;73.92;99350.28;1790764;80;21009;-79
2022/05/15 04:40:26;;;;;;;8.38;5.08;;;;;;;13.80;73.35;99357.57;1795195;80;21534;-79
2022/05/15 04:42:53;;;;;;;6.87;4.62;;;;;;;13.80;73.29;99352.34;1783300;80;20975;-79
2022/05/15 04:45:20;;;;;;;9.60;5.03;;;;;;;13.82;73.86;99359.68;1776854;80;21478;-79
2022/05/15 04:47:47;;;;;;;9.13;5.45;;;;;;;13.89;73.82;99358.58;1787386;80;21038;-80
2022/05/15 04:50:16;;;;;;;12.40;5.53;;;;;;;13.96;73.25;99358.74;1780081;80;20974;-79
2022/05/15 04:52:43;;;;;;;9.98;4.70;;;;;;;14.02;73.12;99362.91;1762966;80;20967;-76
2022/05/15 04:55:09;;;;;;;14.40;5.15;;;;;;;14.07;73.63;99360.54;1785275;78;21006;-77
2022/05/15 04:57:36;;;;;;;8.35;4.97;;;;;;;14.15;73.19;99362.05;1793791;80;20984;-77
2022/05/15 05:00:14;;;;;;;8.75;5.30;;;;;;;14.23;72.60;99360.85;1795121;80;21498;-81
2022/05/15 05:02:40;;;;;;;23.15;5.62;;;;;;;14.28;72.61;99361.98;1780521;80;21054;-79
2022/05/15 05:05:08;;;;;;;12.68;4.72;;;;;;;14.37;72.42;99365.59;1786223;80;21545;-79
2022/05/15 05:07:35;;;;;;;7.33;4.80;;;;;;;14.45;72.76;99364.00;1795235;80;21617;-79
2022/05/15 05:10:04;;;;;;;8.48;4.80;;;;;;;14.57;72.57;99362.73;1795509;80;20975;-79
2022/05/15 05:12:30;;;;;;;9.00;5.35;;;;;;;14.60;72.75;99362.59;1796420;79;20995;-79
2022/05/15 05:14:58;;;;;;;9.18;5.35;;;;;;;14.70;72.72;99359.59;1798553;80;20939;-79
2022/05/15 05:17:25;;;;;;;9.35;5.08;;;;;;;14.76;72.44;99358.48;1786222;80;21583;-77
2022/05/15 05:19:52;;;;;;;11.30;4.83;;;;;;;14.85;72.34;99362.53;1784538;80;20979;-77
2022/05/15 05:22:19;;;;;;;8.93;5.33;;;;;;;14.91;71.95;99367.53;1784271;80;21537;-76
2022/05/15 05:24:45;;;;;;;9.58;5.87;;;;;;;14.99;71.81;99376.41;1793483;80;21018;-80
2022/05/15 05:27:12;;;;;;;10.88;5.40;;;;;;;15.04;71.52;99377.94;1795131;80;20992;-78
2022/05/15 05:29:39;;;;;;;10.60;5.83;;;;;;;15.08;71.47;99378.65;1792940;80;21049;-79
2022/05/15 05:32:07;;;;;;;9.45;5.55;;;;;;;15.14;71.10;99380.17;1777459;80;21504;-78
2022/05/15 05:34:34;;;;;;;9.03;5.47;;;;;;;15.15;70.73;99380.59;1791014;80;21026;-78
2022/05/15 05:37:00;;;;;;;13.00;5.72;;;;;;;15.16;70.65;99388.39;1789222;80;21034;-78
2022/05/15 05:39:29;;;;;;;12.07;5.35;;;;;;;15.19;70.49;99384.33;1777034;80;20978;-78
2022/05/15 05:41:57;;;;;;;9.73;5.72;;;;;;;15.27;70.80;99386.18;1776768;80;21061;-78
2022/05/15 05:44:25;;;;;;;10.58;5.72;;;;;;;15.38;70.42;99384.89;1776845;80;21018;-78
2022/05/15 05:46:52;;;;;;;10.43;5.22;;;;;;;15.47;69.92;99380.61;1780460;80;20968;-78
2022/05/15 05:49:18;;;;;;;9.48;5.85;;;;;;;15.48;69.76;99378.40;1794921;80;21031;-78
2022/05/15 05:51:47;;;;;;;9.15;5.37;;;;;;;15.60;69.58;99375.73;1783452;80;21034;-78
2022/05/15 05:54:14;;;;;;;11.40;5.53;;;;;;;15.69;69.46;99374.86;1794023;80;20963;-79
2022/05/15 05:56:41;;;;;;;8.20;5.15;;;;;;;15.81;69.42;99370.07;1784956;80;21513;-78
2022/05/15 05:59:07;;;;;;;10.68;5.10;;;;;;;15.94;69.57;99374.35;1792549;80;21014;-79
2022/05/15 06:01:34;;;;;;;8.70;5.53;;;;;;;16.06;69.29;99374.66;1795138;80;21540;-79
2022/05/15 06:06:45;;;;;;;10.15;5.10;;;;;;;16.28;68.33;99373.73;1786082;80;20966;-79
2022/05/15 06:09:12;;;;;;;13.90;5.65;;;;;;;16.36;67.93;99374.24;1776930;80;20958;-78
2022/05/15 06:11:38;;;;;;;9.40;5.42;;;;;;;16.44;67.91;99373.91;1776739;80;20975;-78
2022/05/15 06:14:06;;;;;;;10.30;5.42;;;;;;;16.56;67.63;99368.57;1789720;80;21478;-79
2022/05/15 06:16:32;;;;;;;13.93;5.60;;;;;;;16.64;67.27;99370.38;1782702;80;21031;-79
2022/05/15 06:19:00;;;;;;;9.70;5.22;;;;;;;16.73;66.68;99373.88;1783533;80;20986;-79
2022/05/15 06:21:26;;;;;;;9.45;4.60;;;;;;;16.82;66.01;99370.03;1776733;80;21062;-78
2022/05/15 06:23:53;;;;;;;7.35;4.60;;;;;;;16.92;65.89;99373.08;1786863;80;20995;-78
2022/05/15 06:26:20;;;;;;;10.25;5.62;;;;;;;17.00;65.86;99370.47;1792214;80;21010;-78
2022/05/15 06:28:46;;;;;;;8.35;5.58;;;;;;;17.10;65.27;99372.20;1776877;80;21005;-80
2022/05/15 06:31:13;;;;;;;12.88;4.62;;;;;;;17.20;64.86;99366.90;1789796;80;20983;-77
2022/05/15 06:33:40;;;;;;;12.10;5.45;;;;;;;17.30;64.82;99370.78;1776725;80;21478;-79
2022/05/15 06:36:07;;;;;;;7.67;5.25;;;;;;;17.38;64.44;99372.20;1789279;80;21046;-79
2022/05/15 06:38:33;;;;;;;10.65;4.87;;;;;;;17.45;64.18;99363.95;1782243;80;21493;-78
2022/05/15 06:41:00;;;;;;;9.25;5.42;;;;;;;17.55;64.38;99368.73;1784050;80;21074;-78
2022/05/15 06:43:27;;;;;;;9.35;5.00;;;;;;;17.65;64.19;99366.05;1789702;80;21477;-79
2022/05/15 06:45:54;;;;;;;7.50;4.22;;;;;;;17.74;63.71;99363.42;1785968;80;21022;-79
2022/05/15 06:48:20;;;;;;;11.20;5.37;;;;;;;17.82;63.12;99360.77;1782091;80;21050;-79
2022/05/15 06:50:49;;;;;;;9.43;5.35;;;;;;;17.91;62.69;99359.98;1795234;80;21498;-80
2022/05/15 06:53:17;;;;;;;13.05;5.50;;;;;;;17.97;62.81;99370.19;1794650;80;21740;-79
2022/05/15 06:58:29;;;;;;;10.48;4.67;;;;;;;18.18;62.53;99361.63;1784423;80;21531;-79
2022/05/15 07:00:56;;;;;;;9.45;5.17;;;;;;;18.23;61.45;99359.16;1793211;80;20983;-79
2022/05/15 07:03:23;;;;;;;13.45;4.58;;;;;;;18.27;61.00;99365.11;1774856;80;21565;-78
2022/05/15 07:05:50;;;;;;;8.73;4.28;;;;;;;18.34;60.99;99353.78;1789577;80;21078;-78
2022/05/15 07:08:18;;;;;;;6.80;3.87;;;;;;;18.42;60.42;99359.48;1784559;80;21043;-78
2022/05/15 07:10:44;;;;;;;7.78;3.47;;;;;;;18.53;60.01;99351.88;1794233;80;21393;-78
2022/05/15 07:13:12;;;;;;;7.53;3.80;;;;;;;18.60;57.67;99353.70;1776883;80;21013;-78
2022/05/15 07:15:38;;;;;;;6.50;3.62;;;;;;;18.67;57.90;99353.30;1788924;80;21003;-78
2022/05/15 07:18:07;;;;;;;14.38;4.70;;;;;;;18.78;58.25;99358.44;1784694;79;21144;-78
2022/05/15 07:20:34;;;;;;;7.58;3.72;;;;;;;18.81;56.70;99352.57;1794958;80;21003;-78
2022/05/15 07:23:02;;;;;;;7.97;3.62;;;;;;;18.87;57.66;99358.81;1778617;80;20995;-78
2022/05/15 07:25:29;;;;;;;8.48;3.77;;;;;;;18.97;57.42;99351.73;1777071;80;21097;-78
2022/05/15 07:27:56;;;;;;;8.00;4.10;;;;;;;19.08;56.24;99356.79;1789750;80;21003;-79
2022/05/15 07:30:23;;;;;;;7.65;4.00;;;;;;;19.18;56.57;99348.34;1776817;80;20998;-77
2022/05/15 07:32:49;;;;;;;9.80;4.17;;;;;;;19.25;55.29;99345.28;1789593;80;21431;-78
2022/05/15 07:35:19;;;;;;;8.93;3.70;;;;;;;19.35;56.06;99345.61;1776900;80;20982;-78
2022/05/15 07:37:45;;;;;;;10.85;3.40;;;;;;;19.46;54.78;99346.33;1788958;80;20990;-78
2022/05/15 07:40:13;;;;;;;6.70;2.98;;;;;;;19.59;53.96;99343.34;1782296;80;20983;-78
2022/05/15 07:42:41;;;;;;;9.63;3.25;;;;;;;19.66;53.92;99346.01;1795023;80;21058;-79
2022/05/15 07:45:10;;;;;;;6.08;3.20;;;;;;;19.78;53.52;99341.84;1761787;80;21052;-78
2022/05/15 07:47:37;;;;;;;10.80;3.60;;;;;;;19.90;53.28;99342.89;1795245;80;20999;-78
2022/05/15 07:50:06;;;;;;;9.45;3.52;;;;;;;19.98;52.83;99340.64;1795211;80;21546;-78
2022/05/15 07:52:32;;;;;;;9.83;4.22;;;;;;;20.09;53.14;99338.66;1795231;80;20964;-78
2022/05/15 07:54:59;;;;;;;6.87;3.80;;;;;;;20.18;53.10;99337.28;1795185;80;20999;-77
2022/05/15 07:57:26;;;;;;;9.45;4.05;;;;;;;20.31;52.57;99338.20;1779620;80;20971;-78
2022/05/15 07:59:53;;;;;;;8.73;4.53;;;;;;;20.35;51.83;99343.70;1785463;80;21074;-78
2022/05/15 08:02:20;;;;;;;8.35;4.90;;;;;;;20.39;52.26;99341.70;1793921;80;21011;-78
2022/05/15 08:10:17;;;;;;;9.15;4.42;;;;;;;20.61;51.68;99343.88;1774704;81;20998;-78
2022/05/15 08:12:44;;;;;;;6.80;3.80;;;;;;;20.67;51.93;99336.89;1770492;81;21037;-79
2022/05/15 08:15:11;;;;;;;6.08;3.72;;;;;;;20.76;52.45;99334.16;1747724;82;21589;-78
2022/05/15 08:17:38;;;;;;;6.40;3.83;;;;;;;20.93;51.70;99344.96;1768176;81;21054;-78
2022/05/15 08:25:42;;;;;;;5.25;2.50;;;;;;;21.38;49.46;99331.03;1763852;81;21014;-78
2022/05/15 08:28:08;;;;;;;4.75;2.40;;;;;;;21.55;50.04;99337.90;1756090;81;20994;-78
2022/05/15 08:30:35;;;;;;;6.42;2.60;;;;;;;21.67;48.45;99335.75;1761396;81;21033;-78
2022/05/15 08:33:02;;;;;;;6.12;3.00;;;;;;;21.79;47.39;99332.75;1751230;81;20966;-78
2022/05/15 08:35:29;;;;;;;7.95;2.77;;;;;;;21.87;45.84;99330.44;1774688;81;20990;-78
2022/05/15 08:37:57;;;;;;;5.53;2.22;;;;;;;21.89;45.22;99331.66;1756056;81;21006;-78
2022/05/15 08:40:30;;;;;;;6.58;2.40;;;;;;;22.01;44.60;99329.00;1765682;81;21033;-77
2022/05/15 08:42:59;;;;;;;7.20;2.52;;;;;;;22.06;41.99;99323.38;1766756;81;22170;-78
2022/05/15 08:45:37;;;;;;;7.17;2.37;;;;;;;22.13;41.00;99326.47;1774877;81;21013;-78
2022/05/15 08:48:07;;;;;;;9.03;2.98;;;;;;;22.24;41.04;99323.94;1756510;81;20981;-77
2022/05/15 08:50:39;;;;;;;5.17;3.12;;;;;;;22.34;43.56;99328.12;1751824;81;21548;-78
2022/05/15 08:53:14;;;;;;;7.80;3.50;;;;;;;22.37;43.59;99323.45;1775199;81;21023;-80
2022/05/15 08:55:47;;;;;;;7.00;2.95;;;;;;;22.47;44.67;99322.82;1755984;81;21580;-80
2022/05/15 08:58:26;;;;;;;;;;;;;;;22.59;43.10;99317.97;1777605;81;21006;-77
2022/05/15 09:00:54;;;;;;;10.70;2.98;;;;;;;22.62;41.31;99323.91;1774617;81;20109;-80
2022/05/15 09:03:29;;;;;;;6.22;3.08;;;;;;;22.61;42.69;99320.03;1751658;81;21496;-78
2022/05/15 09:06:32;;;;;;;9.60;2.90;;;;;;;22.61;43.16;99316.05;1770959;80;21042;-78
2022/05/15 09:09:22;;;;;;;5.42;2.70;;;;;;;22.73;42.16;99316.50;1756722;81;21059;-78
2022/05/15 09:12:00;;;;;;;8.18;2.80;;;;;;;22.86;42.39;99314.28;1761918;81;20978;-78
2022/05/15 09:14:57;;;;;;;10.15;3.00;;;;;;;22.94;41.89;99314.56;1747992;82;21033;-78
2022/05/15 09:17:52;;;;;;;6.12;2.67;;;;;;;23.00;40.73;99306.20;1748173;82;21620;-78
2022/05/15 09:20:30;;;;;;;5.90;2.55;;;;;;;23.14;41.79;99307.37;1748291;82;21053;-78
2022/05/15 09:23:34;;;;;;;7.53;2.58;;;;;;;23.31;42.34;99311.91;1752563;81;21015;-78
2022/05/15 09:26:19;;;;;;;4.08;2.35;;;;;;;23.55;42.13;99299.92;1765161;81;21046;-78
2022/05/15 09:28:52;;;;;;;5.25;2.42;;;;;;;23.77;40.14;99308.42;1760332;81;20967;-78
2022/05/15 09:31:42;;;;;;;5.60;2.33;;;;;;;23.85;40.23;99300.75;1756275;81;20982;-78
2022/05/15 09:34:18;;;;;;;6.58;2.58;;;;;;;24.11;39.90;99293.91;1759862;81;21529;-78
2022/05/15 09:36:46;;;;;;;4.33;2.37;;;;;;;24.33;40.12;99295.72;1766856;81;21013;-77
2022/05/15 09:39:44;;;;;;;6.00;3.12;;;;;;;24.56;36.77;99289.45;1748383;82;21036;-77
2022/05/15 09:45:18;;;;;;;4.78;2.50;;;;;;;24.80;36.82;99289.77;1769407;81;21017;-78
2022/05/15 09:47:52;;;;;;;4.17;2.47;;;;;;;24.85;36.96;99285.41;1739131;81;21014;-78
2022/05/15 09:50:45;;;;;;;4.22;2.00;;;;;;;24.89;37.32;99274.41;1769453;81;21895;-77
2022/05/15 09:53:38;;;;;;;4.95;2.27;;;;;;;25.01;37.66;99272.56;1773871;81;21447;-77
2022/05/15 09:56:22;;;;;;;5.67;2.05;;;;;;;25.16;37.71;99267.28;1776297;80;20966;-76
2022/05/15 09:59:09;;;;;;;4.72;2.25;;;;;;;25.33;37.74;99265.09;1778469;79;21054;-78
2022/05/15 10:01:49;;;;;;;4.08;2.30;;;;;;;25.45;37.50;99264.55;1766436;80;20996;-80
2022/05/15 10:04:39;;;;;;;3.70;2.10;;;;;;;25.57;36.50;99272.33;1767276;81;20978;-79
2022/05/15 10:07:09;;;;;;;5.53;2.20;;;;;;;25.75;35.11;99269.08;1783270;80;21022;-77
2022/05/15 10:09:40;;;;;;;3.98;2.37;;;;;;;25.81;34.15;99268.55;1782284;80;21051;-78
2022/05/15 10:12:15;;;;;;;4.85;2.35;;;;;;;25.64;30.26;99264.66;1749780;81;21538;-78
2022/05/15 10:14:55;;;;;;;3.92;2.30;;;;;;;25.67;32.26;99264.91;1792326;80;20996;-78
2022/05/15 10:17:24;;;;;;;4.47;2.58;;;;;;;25.85;33.00;99271.30;1794930;79;21078;-78
2022/05/15 10:20:28;;;;;;;4.83;2.10;;;;;;;26.00;33.57;99263.83;1776861;80;21045;-78
2022/05/15 10:23:12;;;;;;;5.20;2.47;;;;;;;26.27;32.81;99255.27;1778984;78;20982;-78
2022/05/15 10:26:00;;;;;;;5.90;2.40;;;;;;;26.59;31.98;99263.59;1786272;80;21028;-79
2022/05/15 10:28:47;;;;;;;6.15;2.25;;;;;;;26.66;32.44;99258.08;1784780;79;21046;-78
2022/05/15 10:31:37;;;;;;;5.60;2.60;;;;;;;26.91;32.76;99255.36;1783253;78;21018;-79
2022/05/15 10:34:13;;;;;;;6.08;2.62;;;;;;;27.16;32.58;99255.81;1788468;78;20994;-79
2022/05/15 10:37:11;;;;;;;4.50;2.40;;;;;;;27.24;31.26;99256.44;1784183;80;20979;-79
2022/05/15 10:39:59;;;;;;;9.63;2.45;;;;;;;27.07;31.22;99255.30;1775009;80;21007;-78
2022/05/15 10:43:12;;;;;;;4.50;2.20;;;;;;;27.03;31.02;99254.73;1786860;79;21436;-78
2022/05/15 10:45:43;;;;;;;;;;;;;;;26.89;31.28;99256.48;1777057;80;21042;-79
2022/05/15 10:48:53;;;;;;;9.58;2.25;;;;;;;26.63;29.75;99253.01;1783030;80;20155;-79
2022/05/15 10:51:31;;;;;;;5.35;2.30;;;;;;;26.55;30.70;99248.82;1768100;80;21533;-78
2022/05/15 10:57:42;;;;;;;5.83;2.58;;;;;;;26.77;30.59;99243.77;1781136;79;21082;-78
2022/05/15 11:00:33;;;;;;;5.83;2.30;;;;;;;26.87;30.27;99243.78;1786896;80;21006;-79
2022/05/15 11:03:14;;;;;;;4.97;2.20;;;;;;;27.14;29.72;99249.77;1784329;79;21041;-78
2022/05/15 11:06:03;;;;;;;4.28;2.08;;;;;;;27.41;29.18;99237.55;1787578;78;20959;-79
2022/05/15 11:09:09;;;;;;;5.03;2.00;;;;;;;27.55;29.44;99239.27;1746410;81;22690;-79
2022/05/15 11:11:53;;;;;;;6.80;2.25;;;;;;;27.69;26.59;99242.47;1710206;82;21044;-79
2022/05/15 11:14:50;;;;;;;4.12;2.17;;;;;;;27.89;29.26;99233.94;1752165;80;21014;-80
2022/05/15 11:17:39;;;;;;;6.55;2.05;;;;;;;28.12;28.20;99229.08;1736664;81;22177;-79
2022/05/15 11:20:15;;;;;;;6.42;1.87;;;;;;;28.26;28.93;99233.92;1705687;83;21046;-79
2022/05/15 11:22:53;;;;;;;3.83;2.17;;;;;;;28.47;27.91;99232.82;1733244;81;20999;-78
2022/05/15 11:25:31;;;;;;;6.05;1.92;;;;;;;28.59;27.81;99230.81;1703550;81;21068;-78
2022/05/15 11:28:06;;;;;;;5.35;2.00;;;;;;;28.43;27.59;99226.09;1756496;80;21066;-78
2022/05/15 11:30:38;;;;;;;5.42;2.22;;;;;;;28.20;27.64;99223.83;1748735;80;20986;-79
2022/05/15 11:33:10;;;;;;;4.93;2.23;;;;;;;28.25;26.86;99216.70;1740348;81;21026;-79
2022/05/15 11:35:41;;;;;;;4.75;2.08;;;;;;;28.22;27.44;99228.53;1747864;81;21495;-78
2022/05/15 11:38:28;;;;;;;3.65;1.90;;;;;;;28.21;27.69;99225.50;1723200;81;21066;-78
2022/05/15 11:40:56;;;;;;;7.50;1.98;;;;;;;28.12;27.72;99229.08;1730471;81;21479;-79
2022/05/15 11:43:33;;;;;;;4.40;1.72;;;;;;;28.03;27.47;99222.77;1734028;81;21072;-79
2022/05/15 11:46:11;;;;;;;5.58;2.10;;;;;;;28.12;27.06;99223.23;1738702;81;20999;-79
2022/05/15 11:48:50;;;;;;;6.62;2.70;;;;;;;27.91;26.83;99231.49;1731912;82;21078;-78
2022/05/15 11:51:25;;;;;;;5.67;2.37;;;;;;;27.88;27.79;99222.42;1732489;81;20986;-78
2022/05/15 11:54:00;;;;;;;3.70;1.87;;;;;;;27.83;27.67;99223.30;1725793;81;21034;-79
2022/05/15 11:56:53;;;;;;;4.95;2.15;;;;;;;27.71;27.51;99219.13;1729635;82;21026;-79
2022/05/15 11:59:46;;;;;;;;;;;;;;;27.78;28.15;99220.25;1724214;81;21045;-79
2022/05/15 12:02:33;;;;;;;3.77;2.10;;;;;;;27.59;27.84;99205.11;1742401;80;20120;-79
2022/05/15 12:05:11;;;;;;;3.77;2.00;;;;;;;27.59;27.84;99205.11;1725579;81;21669;-79
2022/05/15 12:08:07;;;;;;;3.30;1.92;;;;;;;27.51;27.55;99214.34;1692378;82;21095;-80
2022/05/15 12:10:37;;;;;;;4.92;2.10;;;;;;;27.27;28.52;99209.47;1729241;83;21026;-79
2022/05/15 12:13:09;;;;;;;4.50;2.10;;;;;;;27.19;28.99;99197.63;1701313;84;21033;-79
2022/05/15 12:15:44;;;;;;;4.03;1.90;;;;;;;27.13;28.57;99200.03;1701662;84;20986;-79
2022/05/15 12:18:18;;;;;;;4.30;2.05;;;;;;;27.09;29.07;99195.47;1701373;84;21006;-78